Latest Weather Observations for Geelong Racecourse

IDV60801

Issued at 3:32 pm EST Friday 26 May 2017 (issued every 30 minutes, with the page automatically refreshed every 10 minutes)

About weather observations | Map of weather stations | Latest weather observations for VIC | Other Formats
Station Details ID: 087184 Name: GEELONG RACECOURSE Lat: -38.17 Lon: 144.38 Height: 12.9 m
Data from the previous 72 hours. | See also: Recent months at Geelong Racecourse
Date/Time
EST
Temp
°C
App
Temp
°C
Dew
Point
°C
Rel
Hum
%
Delta-T
°C
Wind Press
QNH
hPa
Press
MSL
hPa
Rain since
9am
mm
Dir  Spd
km/h
Gust
km/h
Spd
kts
Gust
kts
26/03:30pm 16.6 15.2 7.3 54 4.6 NW 4 9 2 5 1019.6 1019.6 0.0
26/03:00pm 15.8 13.5 7.3 57 4.2 W 9 13 5 7 1019.6 1019.6 0.0
26/02:30pm 16.0 13.7 7.5 57 4.2 WNW 9 15 5 8 1020.0 1020.0 0.0
26/02:00pm 16.0 14.1 7.7 58 4.1 W 7 11 4 6 1020.3 1020.3 0.0
26/01:30pm 16.1 13.9 7.8 58 4.2 WNW 9 17 5 9 1020.6 1020.6 0.0
26/01:00pm 16.1 14.4 7.6 57 4.2 W 6 11 3 6 1020.9 1020.9 0.0
26/12:30pm 16.3 14.5 7.3 55 4.5 NNW 6 9 3 5 1021.3 1021.3 0.0
26/12:00pm 15.7 14.1 8.0 60 3.9 WNW 6 9 3 5 1021.8 1021.8 0.0
26/11:30am 15.0 13.5 9.1 68 3.0 W 7 11 4 6 1022.4 1022.4 0.0
26/11:00am 14.2 14.0 13.1 93 0.6 WNW 6 11 3 6 1022.8 1022.8 0.0
26/10:30am 13.3 12.3 12.4 94 0.5 WNW 9 11 5 6 1023.1 1023.1 0.0
26/10:00am 12.3 11.1 11.7 96 0.3 WNW 9 13 5 7 1023.0 1023.0 0.0
26/09:30am 11.4 10.3 10.8 96 0.3 WNW 7 11 4 6 1022.9 1022.9 0.0
26/09:00am 10.8 8.8 10.2 96 0.3 WNW 11 17 6 9 1022.8 1022.8 0.2
26/08:30am 10.3 8.9 9.7 96 0.3 WNW 7 9 4 5 1022.6 1022.6 0.0
26/08:00am 10.2 8.8 9.6 96 0.3 WNW 7 9 4 5 1022.3 1022.3 0.0
26/07:30am 9.8 8.5 9.2 96 0.3 WNW 6 9 3 5 1022.0 1022.0 0.0
26/07:00am 10.0 8.1 9.2 95 0.4 WNW 9 13 5 7 1021.9 1021.9 0.0
26/06:30am 10.2 8.8 9.4 95 0.4 WNW 7 11 4 6 1021.7 1021.7 0.0
26/06:00am 10.7 9.0 9.9 95 0.4 WNW 9 15 5 8 1021.4 1021.4 0.0
26/05:30am 11.2 9.7 10.4 95 0.4 WNW 9 15 5 8 1020.9 1020.9 0.0
26/05:00am 11.4 10.3 10.6 95 0.4 WNW 7 11 4 6 1020.8 1020.8 0.0
26/04:30am 11.4 10.9 10.6 95 0.4 WNW 4 6 2 3 1020.3 1020.3 0.0
26/04:00am 12.1 12.1 11.3 95 0.4 WNW 2 4 1 2 1020.2 1020.2 0.0
26/03:30am 12.4 12.1 11.5 94 0.5 W 4 7 2 4 1020.2 1020.2 0.0
26/03:00am 12.6 12.0 11.7 94 0.5 WNW 6 7 3 4 1019.9 1019.9 0.0
26/02:30am 12.7 12.1 11.8 94 0.5 W 6 9 3 5 1019.8 1019.8 0.0
26/02:00am 12.7 12.1 11.8 94 0.5 W 6 9 3 5 1019.7 1019.7 0.0
26/01:30am 12.7 12.5 11.8 94 0.5 WSW 4 6 2 3 1019.7 1019.7 0.0
26/01:00am 13.2 13.2 12.3 94 0.5 WSW 4 6 2 3 1019.6 1019.6 0.0
26/12:30am 13.5 13.2 12.6 94 0.5 WSW 6 7 3 4 1019.5 1019.5 0.0
26/12:00am 14.1 13.3 13.0 93 0.6 W 9 15 5 8 1019.4 1019.4 0.0
 
Date/Time
EST
Temp
°C
App
Temp
°C
Dew
Point
°C
Rel
Hum
%
Delta-T
°C
Wind Press
QNH
hPa
Press
MSL
hPa
Rain since
9am
mm
Dir  Spd
km/h
Gust
km/h
Spd
kts
Gust
kts
25/11:30pm 14.0 13.5 12.7 92 0.7 W 7 11 4 6 1019.1 1019.1 0.0
25/11:00pm 14.1 12.5 12.8 92 0.7 NW 13 17 7 9 1018.9 1018.9 0.0
25/10:30pm 14.2 13.0 12.9 92 0.7 NW 11 17 6 9 1018.7 1018.7 0.0
25/10:00pm 14.3 13.2 13.0 92 0.7 NW 11 17 6 9 1018.6 1018.6 0.0
25/09:30pm 14.0 12.8 12.7 92 0.7 NW 11 17 6 9 1018.6 1018.6 0.0
25/09:00pm 13.6 13.1 12.5 93 0.6 NNW 7 11 4 6 1018.8 1018.8 0.0
25/08:30pm 13.5 12.9 12.2 92 0.7 NNW 7 11 4 6 1018.4 1018.4 0.0
25/08:00pm 13.8 12.9 12.5 92 0.7 NNW 9 13 5 7 1018.3 1018.3 0.0
25/07:30pm 14.2 13.0 12.9 92 0.7 NW 11 17 6 9 1018.4 1018.4 0.0
25/07:00pm 14.9 13.4 13.1 89 1.0 NW 13 20 7 11 1018.3 1018.3 0.0
25/06:30pm 15.2 13.9 12.5 84 1.5 NW 11 19 6 10 1018.1 1018.1 0.0
25/06:00pm 15.5 13.4 12.3 81 1.7 NW 15 20 8 11 1018.0 1018.0 0.0
25/05:30pm 15.6 13.0 12.0 79 2.0 NW 17 26 9 14 1017.8 1017.8 0.0
25/05:00pm 16.0 13.0 12.0 77 2.2 NW 19 32 10 17 1017.6 1017.6 0.0
25/04:30pm 15.9 12.8 12.1 78 2.1 WNW 20 30 11 16 1017.6 1017.6 0.0
25/04:00pm 16.4 13.1 11.6 73 2.6 NW 20 33 11 18 1017.4 1017.4 0.0
25/03:30pm 17.2 13.7 11.0 67 3.3 NW 20 33 11 18 1017.2 1017.2 0.0
25/03:00pm 17.4 13.0 10.5 64 3.7 NW 24 33 13 18 1017.0 1017.0 0.0
25/02:30pm 17.6 14.0 10.7 64 3.7 NW 20 32 11 17 1017.2 1017.2 0.0
25/02:00pm 17.3 12.3 9.5 60 4.1 NW 26 39 14 21 1017.2 1017.2 0.0
25/01:30pm 17.4 13.2 9.6 60 4.1 NW 22 35 12 19 1017.7 1017.7 0.0
25/01:00pm 17.6 12.5 9.2 58 4.4 NW 26 39 14 21 1017.9 1017.9 0.0
25/12:30pm 17.4 13.7 9.3 59 4.2 NW 19 32 10 17 1018.3 1018.3 0.0
25/12:00pm 17.1 13.9 9.8 62 3.8 NNW 17 26 9 14 1018.7 1018.7 0.0
25/11:30am 16.8 13.5 9.5 62 3.8 NNW 17 24 9 13 1019.2 1019.2 0.0
25/11:00am 16.3 12.9 9.0 62 3.7 NNW 17 28 9 15 1019.6 1019.6 0.0
25/10:30am 16.1 12.4 9.3 64 3.5 NNW 19 33 10 18 1019.7 1019.7 0.0
25/10:00am 15.5 13.3 9.4 67 3.1 NNW 11 15 6 8 1019.8 1019.8 0.0
25/09:30am 14.0 12.6 9.4 74 2.4 N 7 13 4 7 1020.0 1020.0 0.0
25/09:00am 13.4 11.6 9.5 77 2.0 N 9 15 5 8 1020.1 1020.1 0.0
25/08:30am 12.9 11.0 10.4 85 1.3 N 11 15 6 8 1020.2 1020.2 0.0
25/08:00am 12.6 10.9 10.0 84 1.3 N 9 13 5 7 1020.1 1020.1 0.0
25/07:30am 12.6 11.1 9.2 80 1.7 N 7 9 4 5 1019.9 1019.9 0.0
25/07:00am 12.6 11.3 9.1 79 1.8 N 6 6 3 3 1019.8 1019.8 0.0
25/06:30am 12.6 11.3 9.2 80 1.7 NNE 6 7 3 4 1019.7 1019.7 0.0
25/06:00am 12.7 11.5 9.5 81 1.6 N 6 7 3 4 1019.7 1019.7 0.0
25/05:30am 12.9 11.4 9.2 78 1.9 NW 7 11 4 6 1019.3 1019.3 0.0
25/05:00am 12.8 11.3 9.1 78 1.9 NNW 7 9 4 5 1019.2 1019.2 0.0
25/04:30am 12.6 10.7 9.2 80 1.7 NNW 9 13 5 7 1019.2 1019.2 0.0
25/04:00am 12.5 11.4 10.0 85 1.3 NNW 6 9 3 5 1019.1 1019.1 0.0
25/03:30am 12.5 11.4 10.6 88 1.0 NW 7 13 4 7 1019.0 1019.0 0.0
25/03:00am 12.8 11.9 11.5 92 0.7 NW 7 13 4 7 1019.2 1019.2 0.0
25/02:30am 12.6 11.9 11.5 93 0.6 NW 6 9 3 5 1019.3 1019.3 0.0
25/02:00am 12.7 11.9 11.6 93 0.6 NW 7 9 4 5 1019.4 1019.4 0.0
25/01:30am 12.7 11.1 11.6 93 0.6 NW 11 17 6 9 1019.5 1019.5 0.0
25/01:00am 12.6 11.4 11.5 93 0.6 NW 9 13 5 7 1019.6 1019.6 0.0
25/12:30am 12.6 11.4 11.5 93 0.6 NW 9 13 5 7 1019.7 1019.7 0.0
25/12:00am 12.3 11.0 11.4 94 0.5 NW 9 13 5 7 1019.9 1019.9 0.0
 
Date/Time
EST
Temp
°C
App
Temp
°C
Dew
Point
°C
Rel
Hum
%
Delta-T
°C
Wind Press
QNH
hPa
Press
MSL
hPa
Rain since
9am
mm
Dir  Spd
km/h
Gust
km/h
Spd
kts
Gust
kts
24/11:30pm 11.7 10.3 10.8 94 0.5 NW 9 13 5 7 1019.7 1019.7 0.0
24/11:00pm 11.0 9.9 10.1 94 0.5 NNW 6 9 3 5 1019.7 1019.7 0.0
24/10:30pm 11.2 9.2 10.3 94 0.5 NW 11 19 6 10 1019.6 1019.6 0.0
24/10:00pm 11.0 8.6 10.1 94 0.5 NW 13 17 7 9 1019.4 1019.4 0.0
24/09:30pm 11.3 9.7 10.2 93 0.6 WNW 9 13 5 7 1019.5 1019.5 0.0
24/09:00pm 12.0 10.2 10.9 93 0.6 WNW 11 19 6 10 1019.4 1019.4 0.0
24/08:30pm 11.8 10.0 10.7 93 0.6 WNW 11 17 6 9 1019.4 1019.4 0.0
24/08:00pm 12.0 10.5 10.7 92 0.7 WNW 9 11 5 6 1019.4 1019.4 0.0
24/07:30pm 12.3 10.9 11.0 92 0.7 WNW 9 17 5 9 1019.0 1019.0 0.0
24/07:00pm 12.7 11.2 10.6 87 1.1 W 9 15 5 8 1018.9 1018.9 0.0
24/06:30pm 13.3 11.3 10.1 81 1.7 W 11 17 6 9 1018.7 1018.7 0.0
24/06:00pm 13.9 11.0 9.5 75 2.2 W 15 26 8 14 1018.5 1018.5 0.0
24/05:30pm 13.8 12.3 8.6 71 2.6 WNW 6 11 3 6 1018.1 1018.1 0.0
24/05:00pm 14.5 12.8 8.5 67 3.0 WNW 7 13 4 7 1017.8 1017.8 0.0
24/04:30pm 14.8 12.3 8.3 65 3.3 W 11 17 6 9 1017.4 1017.4 0.0
24/04:00pm 15.0 12.6 8.5 65 3.3 W 11 20 6 11 1017.3 1017.3 0.0
24/03:30pm 14.7 12.0 9.1 69 2.9 W 13 20 7 11 1016.9 1016.9 0.0
24/03:00pm 14.6 12.0 9.2 70 2.8 WSW 13 22 7 12 1016.6 1016.6 0.0
24/02:30pm 14.8 10.1 9.2 69 2.9 W 24 35 13 19 1016.4 1016.4 0.0
24/02:00pm 15.4 12.3 10.2 71 2.7 WSW 17 26 9 14 1016.0 1016.0 0.0
24/01:30pm 15.5 12.5 10.7 73 2.5 W 17 26 9 14 1015.9 1015.9 0.0
24/01:00pm 14.6 11.5 10.2 75 2.3 W 17 26 9 14 1015.9 1015.9 0.0
24/12:30pm 15.2 10.7 10.2 72 2.6 W 24 35 13 19 1015.9 1015.9 0.0
24/12:00pm 15.6 11.9 11.4 76 2.3 W 22 35 12 19 1015.9 1015.9 0.0
24/11:30am 14.9 10.2 10.7 76 2.2 W 26 39 14 21 1016.2 1016.2 0.0
24/11:00am 14.5 10.4 11.3 81 1.7 W 24 35 13 19 1016.1 1016.1 0.0
24/10:30am 14.2 10.9 11.7 85 1.3 W 20 32 11 17 1015.7 1015.7 0.0
24/10:00am 13.8 10.7 12.2 90 0.9 W 20 32 11 17 1015.7 1015.7 0.0
24/09:30am 13.6 10.7 12.3 92 0.7 WNW 19 30 10 16 1015.3 1015.3 0.0
24/09:00am 13.1 9.5 11.8 92 0.7 WNW 22 33 12 18 1014.8 1014.8 0.0
24/08:30am 12.1 10.3 11.0 93 0.6 WNW 11 20 6 11 1014.5 1014.5 0.0
24/08:00am 10.7 10.3 9.6 93 0.6 NW 2 7 1 4 1014.3 1014.3 0.0
24/07:30am 10.4 9.5 9.3 93 0.5 NW 4 7 2 4 1014.0 1014.0 0.0
24/07:00am 11.1 9.4 10.0 93 0.6 WNW 9 15 5 8 1013.5 1013.5 0.0
24/06:30am 11.4 7.4 10.3 93 0.6 WNW 22 33 12 18 1013.1 1013.1 0.0
24/06:00am 11.6 9.3 10.5 93 0.6 WNW 13 26 7 14 1012.6 1012.6 0.0
24/05:30am 11.7 9.1 10.6 93 0.6 NW 15 20 8 11 1012.5 1012.5 0.0
24/05:00am 11.7 9.4 10.6 93 0.6 WNW 13 22 7 12 1012.3 1012.3 0.0
24/04:30am 11.9 9.3 10.6 92 0.7 WNW 15 24 8 13 1011.9 1011.9 0.0
24/04:00am 11.7 10.2 10.6 93 0.6 NW 9 13 5 7 1011.7 1011.7 0.0
24/03:30am 11.5 10.0 10.4 93 0.6 NW 9 13 5 7 1011.7 1011.7 0.0
24/03:00am 10.9 9.6 10.0 94 0.5 NNW 7 9 4 5 1011.8 1011.8 0.0
24/02:30am 10.9 9.6 10.0 94 0.5 NNW 7 9 4 5 1012.0 1012.0 0.0
24/02:00am 10.8 9.7 9.9 94 0.5 NNW 6 7 3 4 1011.8 1011.8 0.0
24/01:30am 11.4 10.4 10.3 93 0.6 NW 6 7 3 4 1011.9 1011.9 0.0
24/01:00am 12.0 11.2 10.9 93 0.6 NNW 6 9 3 5 1012.0 1012.0 0.0
24/12:30am 11.3 10.3 10.4 94 0.5 NW 6 11 3 6 1012.3 1012.3 0.0
24/12:00am 12.2 11.2 11.1 93 0.6 NNW 7 13 4 7 1012.3 1012.3 0.0
 
Date/Time
EST
Temp
°C
App
Temp
°C
Dew
Point
°C
Rel
Hum
%
Delta-T
°C
Wind Press
QNH
hPa
Press
MSL
hPa
Rain since
9am
mm
Dir  Spd
km/h
Gust
km/h
Spd
kts
Gust
kts
23/11:30pm 10.4 9.6 9.5 94 0.5 NNW 4 6 2 3 1012.6 1012.6 0.0
23/11:00pm 11.1 10.4 10.0 93 0.6 N 4 6 2 3 1013.0 1013.0 0.0
23/10:30pm 11.6 10.7 10.5 93 0.6 N 6 9 3 5 1013.2 1013.2 0.0
23/10:00pm 11.9 11.0 10.8 93 0.6 NNW 6 9 3 5 1013.5 1013.5 0.0
23/09:30pm 12.0 11.2 10.9 93 0.6 N 6 9 3 5 1013.6 1013.6 0.0
23/09:00pm 12.2 11.4 10.9 92 0.7 NNW 6 7 3 4 1013.6 1013.6 0.0
23/08:30pm 13.2 12.6 11.6 90 0.9 N 6 7 3 4 1013.6 1013.6 0.0
23/08:00pm 13.6 13.2 11.1 85 1.3 N 4 7 2 4 1013.7 1013.7 0.0
23/07:30pm 13.9 13.4 10.9 82 1.6 NW 4 6 2 3 1013.7 1013.7 0.0
23/07:00pm 14.6 13.7 10.6 77 2.1 NW 6 9 3 5 1013.5 1013.5 0.0
23/06:30pm 15.2 14.3 10.6 74 2.4 WNW 6 7 3 4 1013.6 1013.6 0.0
23/06:00pm 15.7 14.6 10.5 71 2.7 WNW 7 13 4 7 1013.5 1013.5 0.0
23/05:30pm 16.5 14.6 10.4 67 3.2 NNW 11 20 6 11 1013.3 1013.3 0.0
23/05:00pm 17.6 15.2 10.0 61 4.0 NNW 13 22 7 12 1013.3 1013.3 0.0
23/04:30pm 18.5 15.4 10.3 59 4.4 NNW 17 26 9 14 1013.0 1013.0 0.0
23/04:00pm 18.8 15.3 10.1 57 4.6 NNW 19 28 10 15 1012.9 1012.9 0.0

Other Formats:

Comma delimited format used in spreadsheet applications
http://www.bom.gov.au/fwo/IDV60801/IDV60801.94857.axf

JavaScript Object Notation format (JSON) in row-major order
http://www.bom.gov.au/fwo/IDV60801/IDV60801.94857.json